createdAt,value
2023-03-29T00:04:02.458Z,2.11
2023-03-29T00:09:06.804Z,2.08
2023-03-29T00:14:07.575Z,2.11
2023-03-29T00:19:08.275Z,2.07
2023-03-29T00:24:10.528Z,1.98
2023-03-29T00:29:11.578Z,2.00
2023-03-29T00:34:12.560Z,1.96
2023-03-29T00:39:14.589Z,2.03
2023-03-29T00:45:02.520Z,1.98
2023-03-29T00:50:07.572Z,1.92
2023-03-29T00:55:13.283Z,1.89
2023-03-29T01:00:18.163Z,1.81
2023-03-29T01:05:24.308Z,1.79
2023-03-29T01:10:34.109Z,1.82
2023-03-29T01:15:35.229Z,1.81
2023-03-29T01:20:49.123Z,1.78
2023-03-29T01:25:58.590Z,1.76
2023-03-29T01:31:08.359Z,1.74
2023-03-29T01:36:17.405Z,1.62
2023-03-29T01:41:18.301Z,1.63
2023-03-29T01:46:27.476Z,1.55
2023-03-29T01:51:36.740Z,1.55
2023-03-29T01:56:41.839Z,1.51
2023-03-29T02:01:50.547Z,1.44
2023-03-29T02:06:54.463Z,1.44
2023-03-29T02:11:58.365Z,1.45
2023-03-29T02:17:16.912Z,1.51
2023-03-29T02:22:24.309Z,1.53
2023-03-29T02:27:25.137Z,1.57
2023-03-29T02:32:33.464Z,1.62
2023-03-29T02:37:40.550Z,1.61
2023-03-29T02:42:45.469Z,1.67
2023-03-29T02:47:52.568Z,1.75
2023-03-29T02:52:56.859Z,1.76
2023-03-29T02:57:58.028Z,1.81
2023-03-29T03:03:02.035Z,1.89
2023-03-29T03:08:04.626Z,1.90
2023-03-29T03:13:05.793Z,1.99
2023-03-29T03:18:08.325Z,1.86
2023-03-29T03:23:10.719Z,2.01
2023-03-29T03:28:12.508Z,1.92
2023-03-29T03:33:14.567Z,2.02
2023-03-29T03:38:44.081Z,2.03
2023-03-29T03:43:48.844Z,2.05
2023-03-29T03:48:52.075Z,2.02
2023-03-29T03:54:05.575Z,2.01
2023-03-29T03:59:09.362Z,1.99
2023-03-29T04:04:28.833Z,1.98
2023-03-29T04:09:35.390Z,2.12
2023-03-29T04:14:50.990Z,2.08
2023-03-29T04:19:58.562Z,1.95
2023-03-29T04:25:02.912Z,1.95
2023-03-29T04:30:35.563Z,1.95
2023-03-29T04:35:46.359Z,2.00
2023-03-29T04:40:49.423Z,2.04
2023-03-29T04:45:59.634Z,2.18
2023-03-29T04:51:25.102Z,2.43
2023-03-29T04:56:28.008Z,2.68
2023-03-29T05:01:47.250Z,2.73
2023-03-29T05:06:49.412Z,2.70
2023-03-29T05:11:51.552Z,2.83
2023-03-29T05:16:54.317Z,2.99
2023-03-29T05:21:56.454Z,2.88
2023-03-29T05:26:58.543Z,3.01
2023-03-29T05:32:01.814Z,3.06
2023-03-29T05:37:04.039Z,3.18
2023-03-29T05:42:15.749Z,3.31
2023-03-29T05:47:24.826Z,3.35
2023-03-29T05:52:27.434Z,3.51
2023-03-29T05:57:28.286Z,3.53
2023-03-29T06:02:29.518Z,3.47
2023-03-29T06:07:33.654Z,3.60
2023-03-29T06:13:00.168Z,3.62
2023-03-29T06:18:01.648Z,3.79
2023-03-29T06:23:03.982Z,4.00
2023-03-29T06:28:04.948Z,3.92
2023-03-29T06:33:08.163Z,3.80
2023-03-29T06:38:28.617Z,4.11
2023-03-29T06:43:29.528Z,3.94
2023-03-29T06:48:41.945Z,4.00
2023-03-29T06:53:44.377Z,4.22
2023-03-29T06:58:47.016Z,4.19
2023-03-29T07:04:08.872Z,4.18
2023-03-29T07:09:32.198Z,4.31
2023-03-29T07:15:11.904Z,4.48
2023-03-29T07:20:33.776Z,4.62
2023-03-29T07:25:42.717Z,4.67
2023-03-29T07:30:43.780Z,4.77
2023-03-29T07:35:48.079Z,4.93
2023-03-29T07:40:50.463Z,4.84
2023-03-29T07:46:14.226Z,4.76
2023-03-29T07:51:16.009Z,4.67
2023-03-29T07:56:20.669Z,4.88
2023-03-29T08:01:26.181Z,4.81
2023-03-29T08:06:35.247Z,4.83
2023-03-29T08:11:39.797Z,5.09
2023-03-29T08:16:49.376Z,4.78
2023-03-29T08:21:51.698Z,4.75
2023-03-29T08:26:56.048Z,5.05
2023-03-29T08:31:59.560Z,5.26
2023-03-29T08:37:00.566Z,5.32
2023-03-29T08:42:30.591Z,5.46
2023-03-29T08:47:39.792Z,5.65
2023-03-29T08:52:50.812Z,5.86
2023-03-29T08:58:20.076Z,6.14
2023-03-29T09:03:24.198Z,6.12
2023-03-29T09:08:28.849Z,6.50
2023-03-29T09:13:40.748Z,6.41
2023-03-29T09:18:57.222Z,6.76
2023-03-29T09:24:16.564Z,6.86
2023-03-29T09:29:53.044Z,7.18
2023-03-29T09:35:10.000Z,7.27
2023-03-29T09:40:14.332Z,7.39
2023-03-29T09:45:31.274Z,7.42
2023-03-29T09:50:37.309Z,7.92
2023-03-29T09:55:40.988Z,7.90
2023-03-29T10:01:08.961Z,7.74
2023-03-29T10:06:13.387Z,7.78
2023-03-29T10:11:24.192Z,8.18
2023-03-29T10:16:30.516Z,8.44
2023-03-29T10:21:32.670Z,8.80
2023-03-29T10:26:36.181Z,8.80
2023-03-29T10:31:41.693Z,8.98
2023-03-29T10:36:45.438Z,8.83
2023-03-29T10:41:47.398Z,8.98
2023-03-29T10:46:49.444Z,9.27
2023-03-29T10:51:51.603Z,9.11
2023-03-29T10:56:56.547Z,9.07
2023-03-29T11:02:29.377Z,9.16
2023-03-29T11:07:33.240Z,8.73
2023-03-29T11:12:44.800Z,8.79
2023-03-29T11:18:00.381Z,8.88
2023-03-29T11:23:14.646Z,9.33
2023-03-29T11:28:20.156Z,9.49
2023-03-29T11:33:34.638Z,10.07
2023-03-29T11:38:39.350Z,10.17
2023-03-29T11:43:43.892Z,10.54
2023-03-29T11:48:52.003Z,10.56
2023-03-29T11:54:00.976Z,10.60
2023-03-29T11:59:08.532Z,10.36
2023-03-29T12:04:15.876Z,10.71
2023-03-29T12:09:26.559Z,10.75
2023-03-29T12:14:31.086Z,11.24
2023-03-29T12:19:40.938Z,11.17
2023-03-29T12:24:47.070Z,11.31
2023-03-29T12:30:34.136Z,11.45
2023-03-29T12:35:53.640Z,11.54
2023-03-29T12:41:19.017Z,11.20
2023-03-29T12:46:38.588Z,11.00
2023-03-29T12:51:43.746Z,11.47
2023-03-29T12:56:58.311Z,11.66
2023-03-29T13:02:01.699Z,11.25
2023-03-29T13:07:04.065Z,11.22
2023-03-29T13:12:08.930Z,11.59
2023-03-29T13:17:20.227Z,11.63
2023-03-29T13:22:34.248Z,11.33
2023-03-29T13:27:44.858Z,11.14
2023-03-29T13:32:56.547Z,11.41
2023-03-29T13:38:06.405Z,11.09
2023-03-29T13:43:12.393Z,10.83
2023-03-29T13:48:26.143Z,11.08
2023-03-29T13:53:32.387Z,11.01
2023-03-29T13:58:39.155Z,11.35
2023-03-29T14:03:44.795Z,11.69
2023-03-29T14:08:46.996Z,11.35
2023-03-29T14:13:47.898Z,11.52
2023-03-29T14:18:51.454Z,11.78
2023-03-29T14:23:59.014Z,11.72
2023-03-29T14:29:01.805Z,11.31
2023-03-29T14:34:04.194Z,11.38
2023-03-29T14:39:11.532Z,11.49
2023-03-29T14:44:15.506Z,11.41
2023-03-29T14:49:17.914Z,11.33
2023-03-29T14:54:23.272Z,11.50
2023-03-29T14:59:28.474Z,11.66
2023-03-29T15:04:33.970Z,11.54
2023-03-29T15:09:38.394Z,11.51
2023-03-29T15:14:39.340Z,11.41
2023-03-29T15:19:40.261Z,11.42
2023-03-29T15:24:48.748Z,11.15
2023-03-29T15:29:49.827Z,10.89
2023-03-29T15:34:59.360Z,10.74
2023-03-29T15:40:05.717Z,10.43
2023-03-29T15:45:07.359Z,10.46
2023-03-29T15:50:08.741Z,10.45
2023-03-29T15:55:11.729Z,10.53
2023-03-29T16:00:14.746Z,10.70
2023-03-29T16:05:15.603Z,10.80
2023-03-29T16:10:17.758Z,11.06
2023-03-29T16:15:21.459Z,11.11
2023-03-29T16:20:22.153Z,11.15
2023-03-29T16:25:25.408Z,10.99
2023-03-29T16:30:26.311Z,10.91
2023-03-29T16:35:29.359Z,10.69
2023-03-29T16:40:31.634Z,10.55
2023-03-29T16:45:32.511Z,10.36
2023-03-29T16:50:33.969Z,10.03
2023-03-29T16:55:38.010Z,9.80
2023-03-29T17:00:38.923Z,9.70
2023-03-29T17:05:41.668Z,9.59
2023-03-29T17:10:44.270Z,9.62
2023-03-29T17:15:45.063Z,9.57
2023-03-29T17:20:45.942Z,9.38
2023-03-29T17:25:47.990Z,9.22
2023-03-29T17:30:48.773Z,9.09
2023-03-29T17:35:49.698Z,9.05
2023-03-29T17:40:55.288Z,8.88
2023-03-29T17:45:56.055Z,8.75
2023-03-29T17:50:57.828Z,8.72
2023-03-29T17:55:59.842Z,8.70
2023-03-29T18:01:00.745Z,8.69
2023-03-29T18:06:01.798Z,8.61
2023-03-29T18:11:08.786Z,8.58
2023-03-29T18:16:10.497Z,8.72
2023-03-29T18:21:11.378Z,8.69
2023-03-29T18:26:14.709Z,8.62
2023-03-29T18:31:19.802Z,8.57
2023-03-29T18:36:21.419Z,8.58
2023-03-29T18:41:24.536Z,8.62
2023-03-29T18:46:25.778Z,8.60
2023-03-29T18:51:28.119Z,8.54
2023-03-29T18:56:30.889Z,8.49
2023-03-29T19:01:31.591Z,8.51
2023-03-29T19:06:32.761Z,8.43
2023-03-29T19:11:36.048Z,8.38
2023-03-29T19:16:37.182Z,8.37
2023-03-29T19:21:38.729Z,8.41
2023-03-29T19:26:41.131Z,8.38
2023-03-29T19:31:42.027Z,8.39
2023-03-29T19:36:42.767Z,8.45
2023-03-29T19:41:44.847Z,8.42
2023-03-29T19:46:45.708Z,8.30
2023-03-29T19:51:47.907Z,8.27
2023-03-29T19:56:52.030Z,8.08
2023-03-29T20:01:57.009Z,7.96
2023-03-29T20:06:58.553Z,7.90
2023-03-29T20:12:01.052Z,7.92
2023-03-29T20:17:02.106Z,7.85
2023-03-29T20:22:03.342Z,7.94
2023-03-29T20:27:05.759Z,7.99
2023-03-29T20:32:06.925Z,8.04
2023-03-29T20:37:08.007Z,8.10
2023-03-29T20:42:10.246Z,8.05
2023-03-29T20:47:14.156Z,8.07
2023-03-29T20:52:16.898Z,8.04
2023-03-29T20:57:21.320Z,8.09
2023-03-29T21:02:23.799Z,8.07
2023-03-29T21:07:24.608Z,8.07
2023-03-29T21:12:26.614Z,8.03
2023-03-29T21:17:27.703Z,8.00
2023-03-29T21:22:28.454Z,7.91
2023-03-29T21:27:30.483Z,7.91
2023-03-29T21:32:31.431Z,7.92
2023-03-29T21:37:32.161Z,8.02
2023-03-29T21:42:35.037Z,7.87
2023-03-29T21:47:35.856Z,7.86
2023-03-29T21:52:37.791Z,7.79
2023-03-29T21:57:39.859Z,7.77
2023-03-29T22:02:41.279Z,7.76
2023-03-29T22:07:42.228Z,7.67
2023-03-29T22:12:44.424Z,7.63
2023-03-29T22:17:45.262Z,7.53
2023-03-29T22:22:49.670Z,7.52
2023-03-29T22:27:51.840Z,7.47
2023-03-29T22:32:52.513Z,7.40
2023-03-29T22:37:53.335Z,7.38
2023-03-29T22:42:55.422Z,7.37
2023-03-29T22:47:56.233Z,7.45
2023-03-29T22:52:57.000Z,7.45
2023-03-29T22:57:59.139Z,7.41
2023-03-29T23:02:59.847Z,7.41
2023-03-29T23:08:01.036Z,7.50
2023-03-29T23:13:08.920Z,7.48
2023-03-29T23:18:13.267Z,7.52
2023-03-29T23:23:14.535Z,7.54
2023-03-29T23:28:21.825Z,7.51
2023-03-29T23:33:23.330Z,7.54
2023-03-29T23:38:24.322Z,7.64
2023-03-29T23:43:27.207Z,7.62
2023-03-29T23:48:28.469Z,7.67
2023-03-29T23:53:30.012Z,7.59
2023-03-29T23:58:34.950Z,7.64
